Lawn, Pennsylvania
Current Conditions -  °F | °C
As of 2:56 AM on Thursday 27 Nov 2014 (Local Time) from KMDT Reporting Station
Overcast Overcast  
Wind Chill: 26°   Ceiling: 7000
Heat Index: 34°   Visibility: 10mi
Dew Point: 30°   Wind: 10mph
Humidity: 85%   Direction: 290°WNW
Pressure: 29.99"   Gusts: NA
Location:  40.22°N, 76.54°W
Report Text: KMDT 270756Z 29009KT 10SM FEW050 OVC070 01/M01 A2999 RMK AO2 SLP161 T00111011
Loading
Personal Weather Stations






























Interactive Weather Map New forecast layout! Learn more

10-Day Weather Forecast

Advertisements
Track Severe Weather on mobile